Time;durP1;ratioP1;P1;durP2;ratioP2;P2;SDS_P1;SDS_P2;PMS_P1;PMS_P2;Temp;Humidity;BMP_temperature;BMP_pressure;BME280_temperature;BME280_humidity;BME280_pressure;Samples;Min_cycle;Max_cycle;Signal;HPM_P1;HPM_P2
2022/07/08 00:01:24;;;;;;;7.17;1.53;;;;;;;18.11;54.18;102353.19;4999801;28;97076;-50
2022/07/08 00:03:50;;;;;;;4.43;1.23;;;;;;;18.06;54.26;102351.16;4993210;28;96814;-50
2022/07/08 00:06:15;;;;;;;6.50;1.63;;;;;;;18.01;54.37;102357.47;4996753;28;97544;-50
2022/07/08 00:08:40;;;;;;;7.20;1.70;;;;;;;17.95;54.31;102360.22;4995531;28;101297;-51
2022/07/08 00:11:06;;;;;;;10.00;2.43;;;;;;;17.88;54.52;102355.16;4998476;28;96859;-48
2022/07/08 00:13:31;;;;;;;7.00;2.37;;;;;;;17.85;54.50;102355.41;5002416;28;96882;-49
2022/07/08 00:15:56;;;;;;;6.97;1.37;;;;;;;17.84;54.51;102357.41;5003559;28;97663;-49
2022/07/08 00:18:22;;;;;;;4.80;1.30;;;;;;;17.86;54.40;102354.91;5000763;28;97468;-49
2022/07/08 00:20:47;;;;;;;5.97;1.30;;;;;;;17.86;54.57;102356.94;4998384;28;97117;-52
2022/07/08 00:23:12;;;;;;;8.77;1.60;;;;;;;17.80;54.46;102356.16;4998608;28;97324;-49
2022/07/08 00:25:38;;;;;;;1.97;1.20;;;;;;;17.78;54.61;102356.63;4986069;28;98108;-49
2022/07/08 00:28:03;;;;;;;4.97;1.60;;;;;;;17.79;54.56;102357.41;4984087;28;97485;-49
2022/07/08 00:30:28;;;;;;;6.53;1.37;;;;;;;17.80;54.62;102351.31;4998023;28;97304;-49
2022/07/08 00:32:54;;;;;;;8.07;1.17;;;;;;;17.78;54.47;102358.66;5000568;28;97102;-49
2022/07/08 00:35:19;;;;;;;3.03;1.17;;;;;;;17.73;54.48;102359.41;4993653;28;97214;-50
2022/07/08 00:37:45;;;;;;;3.10;1.50;;;;;;;17.71;54.51;102367.50;5001822;28;96753;-49
2022/07/08 00:40:11;;;;;;;9.00;1.90;;;;;;;17.69;54.68;102362.44;5000524;28;97101;-49
2022/07/08 00:42:37;;;;;;;9.40;1.80;;;;;;;17.66;54.52;102368.25;5002395;28;98487;-49
2022/07/08 00:45:03;;;;;;;7.97;1.43;;;;;;;17.65;54.66;102373.03;4998722;28;97529;-49
2022/07/08 00:47:28;;;;;;;3.83;1.20;;;;;;;17.67;54.59;102370.53;5001018;28;96964;-49
2022/07/08 00:49:54;;;;;;;4.83;1.30;;;;;;;17.66;54.62;102371.78;5000170;28;96894;-49
2022/07/08 00:52:19;;;;;;;4.40;1.33;;;;;;;17.61;54.74;102377.31;4995457;28;97457;-49
2022/07/08 00:54:45;;;;;;;4.53;1.63;;;;;;;17.61;54.58;102378.09;4997920;28;97109;-49
2022/07/08 00:57:12;;;;;;;2.87;1.43;;;;;;;17.60;54.71;102387.72;4994763;28;97486;-49
2022/07/08 00:59:37;;;;;;;4.20;1.10;;;;;;;17.61;54.68;102382.88;4992793;28;97543;-49
2022/07/08 01:02:03;;;;;;;4.70;1.57;;;;;;;17.55;54.61;102385.66;5004392;28;97442;-48
2022/07/08 01:04:30;;;;;;;3.20;1.00;;;;;;;17.53;54.62;102387.41;5000295;28;97201;-49
2022/07/08 01:06:55;;;;;;;4.43;1.10;;;;;;;17.51;54.60;102395.50;4992089;28;96997;-49
2022/07/08 01:09:21;;;;;;;6.23;1.67;;;;;;;17.49;54.83;102390.41;4993553;28;96816;-50
2022/07/08 01:11:46;;;;;;;12.27;1.77;;;;;;;17.51;54.70;102409.41;4999452;28;97337;-50
2022/07/08 01:14:13;;;;;;;6.03;1.40;;;;;;;17.49;54.80;102392.44;4995922;28;96756;-50
2022/07/08 01:16:38;;;;;;;5.20;1.40;;;;;;;17.46;54.95;102399.75;5001780;28;99549;-49
2022/07/08 01:19:03;;;;;;;2.20;1.13;;;;;;;17.47;54.90;102403.31;5004464;28;97328;-50
2022/07/08 01:21:29;;;;;;;3.90;1.60;;;;;;;17.45;54.91;102401.00;4996932;28;97341;-51
2022/07/08 01:23:54;;;;;;;2.70;1.00;;;;;;;17.43;54.92;102400.00;4992386;28;104385;-49
2022/07/08 01:26:20;;;;;;;3.33;1.13;;;;;;;17.41;54.91;102396.94;4989696;28;97513;-49
2022/07/08 01:28:45;;;;;;;5.33;1.40;;;;;;;17.41;54.97;102425.53;4996208;28;97236;-49
2022/07/08 01:31:11;;;;;;;3.23;1.17;;;;;;;17.42;55.15;102393.66;4991841;28;96774;-49
2022/07/08 01:33:37;;;;;;;9.20;1.80;;;;;;;17.43;55.09;102388.88;4995942;28;97378;-49
2022/07/08 01:36:02;;;;;;;6.07;1.43;;;;;;;17.42;55.03;102390.09;4995324;28;96902;-49
2022/07/08 01:38:28;;;;;;;4.37;1.47;;;;;;;17.45;55.01;102395.44;5000311;28;96989;-50
2022/07/08 01:40:53;;;;;;;2.60;1.23;;;;;;;17.50;55.15;102394.75;5000424;28;97089;-49
2022/07/08 01:43:20;;;;;;;4.90;1.50;;;;;;;17.49;55.22;102392.44;4997300;28;97177;-48
2022/07/08 01:45:46;;;;;;;7.97;1.53;;;;;;;17.54;55.12;102389.69;4993711;28;97158;-48
2022/07/08 01:48:11;;;;;;;2.83;1.13;;;;;;;17.55;54.99;102391.22;4987164;28;98264;-47
2022/07/08 01:50:37;;;;;;;5.23;1.00;;;;;;;17.56;54.82;102395.53;4989733;28;96917;-49
2022/07/08 01:53:02;;;;;;;5.10;1.40;;;;;;;17.56;54.94;102397.56;4993529;28;108146;-50
2022/07/08 01:55:28;;;;;;;8.77;1.23;;;;;;;17.53;54.83;102390.97;4993766;28;97043;-49
2022/07/08 01:57:53;;;;;;;5.03;1.10;;;;;;;17.53;54.85;102396.53;4993892;28;96975;-49
2022/07/08 02:00:19;;;;;;;5.03;1.33;;;;;;;17.52;54.95;102397.78;4997058;28;97005;-49
2022/07/08 02:02:45;;;;;;;1.67;0.90;;;;;;;17.52;55.15;102406.13;5001733;28;97134;-49
2022/07/08 02:05:11;;;;;;;3.97;1.27;;;;;;;17.52;55.09;102397.78;4994286;28;96858;-49
2022/07/08 02:07:37;;;;;;;4.17;1.10;;;;;;;17.52;54.99;102397.78;4988941;28;96962;-50
2022/07/08 02:10:04;;;;;;;2.87;1.00;;;;;;;17.54;54.99;102395.25;4995635;28;97466;-50
2022/07/08 02:12:29;;;;;;;3.30;0.90;;;;;;;17.54;55.08;102400.81;4992208;28;97318;-49
2022/07/08 02:15:03;;;;;;;2.47;1.27;;;;;;;17.52;54.86;102397.00;4992274;28;97150;-49
2022/07/08 02:17:35;;;;;;;4.17;1.40;;;;;;;17.50;54.83;102389.16;4974790;28;97072;-49
2022/07/08 02:20:01;;;;;;;2.90;1.20;;;;;;;17.49;54.99;102398.75;4992989;28;96919;-50
2022/07/08 02:22:27;;;;;;;6.90;1.33;;;;;;;17.49;54.85;102407.13;4996147;28;97431;-50
2022/07/08 02:24:52;;;;;;;2.00;1.20;;;;;;;17.48;55.06;102405.56;4981072;28;97069;-50
2022/07/08 02:27:19;;;;;;;2.20;1.33;;;;;;;17.46;55.04;102405.31;4995503;28;97497;-50
2022/07/08 02:29:44;;;;;;;2.63;1.20;;;;;;;17.46;55.21;102404.56;4992110;28;97525;-50
2022/07/08 02:32:10;;;;;;;7.67;1.50;;;;;;;17.42;55.27;102404.78;4992942;28;97400;-49
2022/07/08 02:34:36;;;;;;;4.30;1.60;;;;;;;17.36;55.22;102395.66;4994043;28;96865;-51
2022/07/08 02:37:01;;;;;;;5.57;1.43;;;;;;;17.39;55.15;102410.56;4989887;28;96733;-51
2022/07/08 02:39:27;;;;;;;6.20;1.70;;;;;;;17.36;54.99;102406.78;4995176;28;97497;-48
2022/07/08 02:41:52;;;;;;;5.83;1.40;;;;;;;17.34;55.21;102406.53;4992066;28;96695;-50
2022/07/08 02:44:18;;;;;;;6.23;1.13;;;;;;;17.32;55.17;102405.50;4994194;28;96881;-51
2022/07/08 02:46:44;;;;;;;2.30;1.00;;;;;;;17.31;55.28;102409.53;4994727;28;97073;-49
2022/07/08 02:49:10;;;;;;;3.20;1.37;;;;;;;17.29;55.25;102423.94;4999125;28;97539;-50
2022/07/08 02:51:36;;;;;;;2.50;1.20;;;;;;;17.26;55.30;102411.00;4994165;28;100233;-50
2022/07/08 02:54:02;;;;;;;3.50;0.90;;;;;;;17.21;55.24;102409.72;4991705;28;96758;-50
2022/07/08 02:56:29;;;;;;;4.17;1.53;;;;;;;17.17;55.47;102416.75;4976761;28;97394;-49
2022/07/08 02:58:54;;;;;;;1.37;0.87;;;;;;;17.14;55.46;102423.34;4995483;28;97334;-51
2022/07/08 03:01:20;;;;;;;2.90;1.03;;;;;;;17.09;55.54;102418.50;4991922;28;98020;-50
2022/07/08 03:03:45;;;;;;;6.17;1.43;;;;;;;17.07;55.62;102421.00;5000126;28;97279;-51
2022/07/08 03:06:11;;;;;;;4.37;1.30;;;;;;;17.01;55.68;102423.00;5000395;28;97251;-50
2022/07/08 03:08:36;;;;;;;9.33;1.57;;;;;;;16.94;55.67;102421.41;5000466;28;97247;-50
2022/07/08 03:11:01;;;;;;;4.43;1.20;;;;;;;16.96;55.83;102418.91;5000164;28;97026;-50
2022/07/08 03:13:27;;;;;;;7.90;1.70;;;;;;;16.99;55.79;102431.06;4978083;28;97058;-49
2022/07/08 03:15:52;;;;;;;3.13;1.20;;;;;;;17.03;55.83;102432.38;4999029;28;97292;-49
2022/07/08 03:18:17;;;;;;;6.53;0.90;;;;;;;17.03;55.91;102439.94;4997476;28;98955;-49
2022/07/08 03:20:43;;;;;;;2.60;1.03;;;;;;;17.05;55.85;102445.78;4994925;28;96710;-51
2022/07/08 03:23:08;;;;;;;5.37;1.27;;;;;;;17.07;56.00;102434.91;4999958;28;97303;-50
2022/07/08 03:25:33;;;;;;;2.33;1.20;;;;;;;17.09;55.96;102440.75;4991189;28;97017;-49
2022/07/08 03:28:02;;;;;;;4.27;1.00;;;;;;;17.14;56.05;102438.00;4998543;28;100362;-50
2022/07/08 03:30:28;;;;;;;3.80;1.40;;;;;;;17.16;56.00;102448.63;4999254;28;97669;-49
2022/07/08 03:32:53;;;;;;;6.07;1.87;;;;;;;17.19;55.95;102445.63;5001676;28;96953;-50
2022/07/08 03:35:19;;;;;;;8.60;1.47;;;;;;;17.22;55.98;102452.22;5001285;28;96905;-50
2022/07/08 03:37:45;;;;;;;2.20;0.87;;;;;;;17.24;56.13;102458.03;4997056;28;97318;-50
2022/07/08 03:42:56;;;;;;;2.97;1.10;;;;;;;17.29;55.87;102462.91;4996707;28;97162;-50
2022/07/08 03:45:21;;;;;;;2.20;1.37;;;;;;;17.32;56.08;102469.50;4996593;28;99895;-49
2022/07/08 03:47:47;;;;;;;5.53;1.37;;;;;;;17.35;55.87;102469.25;4996170;28;97301;-50
2022/07/08 03:50:12;;;;;;;9.07;1.43;;;;;;;17.38;55.96;102471.06;4993783;28;97987;-50
2022/07/08 03:52:38;;;;;;;3.77;1.00;;;;;;;17.40;56.09;102473.31;5002713;28;96871;-50
2022/07/08 03:55:04;;;;;;;6.73;1.37;;;;;;;17.42;56.14;102468.78;5001632;28;96641;-50
2022/07/08 03:57:30;;;;;;;4.13;1.10;;;;;;;17.40;56.11;102482.44;4996058;28;98546;-50
2022/07/08 03:59:55;;;;;;;5.13;1.63;;;;;;;17.48;55.93;102474.38;4994599;28;98414;-50
2022/07/08 04:02:20;;;;;;;4.87;1.47;;;;;;;17.51;55.86;102477.00;5000200;28;97351;-50
2022/07/08 04:04:46;;;;;;;4.80;0.90;;;;;;;17.53;55.88;102485.59;4998891;28;96942;-52
2022/07/08 04:07:11;;;;;;;5.83;1.50;;;;;;;17.55;55.93;102483.09;4997431;28;102500;-50
2022/07/08 04:09:36;;;;;;;4.73;1.20;;;;;;;17.57;55.89;102483.34;5000500;28;98810;-50
2022/07/08 04:12:02;;;;;;;9.20;1.57;;;;;;;17.60;56.12;102487.16;5002569;28;96810;-50
2022/07/08 04:14:27;;;;;;;5.10;1.40;;;;;;;17.63;55.92;102486.91;5001693;28;96903;-50
2022/07/08 04:16:53;;;;;;;6.23;0.90;;;;;;;17.64;55.80;102485.66;5002624;28;97288;-50
2022/07/08 04:19:18;;;;;;;4.77;1.40;;;;;;;17.65;55.73;102483.63;5003202;28;97491;-50
2022/07/08 04:21:43;;;;;;;2.67;1.23;;;;;;;17.66;55.88;102485.94;5001186;28;97198;-49
2022/07/08 04:24:09;;;;;;;5.37;1.57;;;;;;;17.67;55.80;102493.00;4997282;28;96794;-48
2022/07/08 04:26:34;;;;;;;4.57;1.07;;;;;;;17.68;55.68;102493.78;5001318;28;96980;-49
2022/07/08 04:29:00;;;;;;;3.30;1.17;;;;;;;17.68;55.80;102500.13;4976700;28;97451;-49
2022/07/08 04:31:27;;;;;;;2.60;1.00;;;;;;;17.71;55.97;102504.66;5002900;28;96881;-49
2022/07/08 04:33:56;;;;;;;8.67;1.27;;;;;;;17.70;55.92;102497.59;4997801;28;96763;-48
2022/07/08 04:36:21;;;;;;;8.70;1.50;;;;;;;17.71;55.72;102504.66;4986259;28;97064;-50
2022/07/08 04:38:47;;;;;;;9.60;1.20;;;;;;;17.74;55.97;102506.47;4981945;28;99138;-49
2022/07/08 04:41:13;;;;;;;3.07;1.13;;;;;;;17.77;55.63;102511.06;4995226;28;96697;-50
2022/07/08 04:43:38;;;;;;;6.23;1.67;;;;;;;17.79;55.74;102518.91;4995705;28;97085;-49
2022/07/08 04:46:04;;;;;;;3.50;1.03;;;;;;;17.80;55.68;102521.19;4977071;28;97620;-49
2022/07/08 04:48:30;;;;;;;3.60;1.10;;;;;;;17.82;55.64;102521.44;4995025;28;96685;-49
2022/07/08 04:50:56;;;;;;;3.90;1.33;;;;;;;17.84;55.71;102518.94;4998685;28;96724;-49
2022/07/08 04:53:21;;;;;;;5.20;1.60;;;;;;;17.85;55.48;102514.13;4979361;28;104552;-49
2022/07/08 04:55:47;;;;;;;4.40;1.40;;;;;;;17.89;55.54;102514.66;4982715;28;97586;-49
2022/07/08 04:58:12;;;;;;;2.60;1.00;;;;;;;17.90;55.62;102514.16;4997892;28;97084;-49
2022/07/08 05:00:37;;;;;;;4.87;1.03;;;;;;;17.91;55.49;102518.47;4988320;28;96938;-49
2022/07/08 05:03:03;;;;;;;4.57;1.20;;;;;;;17.94;55.53;102528.63;5012297;22;97714;-47
2022/07/08 05:05:30;;;;;;;5.37;1.00;;;;;;;17.98;55.68;102526.34;4998169;28;96876;-49
2022/07/08 05:07:56;;;;;;;3.03;1.30;;;;;;;18.05;55.41;102525.13;4991477;28;97519;-48
2022/07/08 05:10:22;;;;;;;5.00;1.37;;;;;;;18.09;55.38;102530.44;4993752;28;96789;-49
2022/07/08 05:12:47;;;;;;;7.13;1.67;;;;;;;18.09;55.35;102539.56;4996368;28;97116;-48
2022/07/08 05:15:13;;;;;;;3.60;1.07;;;;;;;18.13;55.47;102539.34;4993724;28;97594;-48
2022/07/08 05:17:38;;;;;;;4.27;1.30;;;;;;;18.17;55.54;102546.22;4999086;28;97422;-47
2022/07/08 05:20:09;;;;;;;2.57;1.00;;;;;;;18.21;55.41;102535.59;5000542;28;97038;-46
2022/07/08 05:22:36;;;;;;;6.50;1.60;;;;;;;18.24;55.30;102534.56;4993685;28;97085;-48
2022/07/08 05:25:03;;;;;;;4.40;0.90;;;;;;;18.27;55.14;102535.59;4991363;28;97187;-49
2022/07/08 05:27:29;;;;;;;3.10;1.30;;;;;;;18.27;55.19;102538.38;4993015;28;97279;-50
2022/07/08 05:29:54;;;;;;;3.43;1.13;;;;;;;18.30;55.17;102540.97;4997236;28;97210;-48
2022/07/08 05:32:19;;;;;;;11.43;1.27;;;;;;;18.33;55.16;102541.97;4999140;28;97536;-48
2022/07/08 05:34:44;;;;;;;3.60;1.13;;;;;;;18.34;55.10;102558.19;4993189;28;98439;-48
2022/07/08 05:37:11;;;;;;;4.20;0.97;;;;;;;18.37;55.02;102543.25;4997438;28;96829;-48
2022/07/08 05:39:37;;;;;;;2.83;1.00;;;;;;;18.39;55.07;102545.53;4997497;28;97063;-48
2022/07/08 05:42:03;;;;;;;2.33;1.10;;;;;;;18.41;55.24;102545.81;4998715;28;97389;-51
2022/07/08 05:44:28;;;;;;;4.50;1.10;;;;;;;18.46;55.26;102537.47;4993576;28;96697;-48
2022/07/08 05:46:54;;;;;;;1.80;0.80;;;;;;;18.48;55.10;102543.31;4993907;28;97071;-48
2022/07/08 05:49:19;;;;;;;2.80;0.97;;;;;;;18.53;55.11;102542.56;4992022;28;97084;-49
2022/07/08 05:51:45;;;;;;;9.63;0.90;;;;;;;18.57;55.03;102542.31;4991371;28;96783;-48
2022/07/08 05:54:10;;;;;;;3.00;0.97;;;;;;;18.62;55.00;102541.59;4989722;28;97434;-48
2022/07/08 05:56:36;;;;;;;3.33;0.90;;;;;;;18.65;54.78;102546.16;4995357;28;97138;-47
2022/07/08 05:59:01;;;;;;;4.80;1.03;;;;;;;18.66;54.68;102556.81;4993026;28;97104;-47
2022/07/08 06:01:26;;;;;;;5.23;1.40;;;;;;;18.70;54.69;102553.78;4996021;28;97477;-47
2022/07/08 06:03:52;;;;;;;2.17;0.77;;;;;;;18.73;54.49;102561.13;4995995;28;96866;-48
2022/07/08 06:06:17;;;;;;;2.97;1.03;;;;;;;18.80;54.67;102557.88;4991277;28;97627;-48
2022/07/08 06:08:42;;;;;;;2.90;1.00;;;;;;;18.86;54.45;102558.63;4994680;28;97093;-48
2022/07/08 06:11:08;;;;;;;3.27;1.20;;;;;;;18.94;54.40;102559.66;4993128;28;97157;-48
2022/07/08 06:13:33;;;;;;;3.83;1.00;;;;;;;18.99;54.42;102560.94;4997184;28;96745;-48
2022/07/08 06:15:58;;;;;;;4.23;1.03;;;;;;;19.05;54.19;102565.25;4996714;28;97242;-49
2022/07/08 06:18:24;;;;;;;3.37;1.10;;;;;;;19.11;54.28;102560.44;4989888;28;97147;-48
2022/07/08 06:20:49;;;;;;;8.70;1.30;;;;;;;19.18;54.00;102554.34;4996280;28;97088;-49
2022/07/08 06:23:14;;;;;;;3.23;1.00;;;;;;;19.24;54.08;102555.13;4996496;28;97590;-48
2022/07/08 06:25:40;;;;;;;3.73;1.40;;;;;;;19.33;53.91;102546.50;4999357;28;97040;-48
2022/07/08 06:28:05;;;;;;;4.83;1.10;;;;;;;19.36;53.79;102556.69;4997399;28;97226;-48
2022/07/08 06:30:31;;;;;;;6.00;0.80;;;;;;;19.38;53.66;102553.38;4994688;28;96775;-48
2022/07/08 06:32:59;;;;;;;3.73;0.80;;;;;;;19.44;53.65;102562.50;4997037;28;97297;-48
2022/07/08 06:35:25;;;;;;;2.93;1.00;;;;;;;19.52;53.59;102566.31;4993139;28;100289;-47
2022/07/08 06:37:50;;;;;;;3.23;1.03;;;;;;;19.57;53.57;102567.59;4994861;28;97261;-48
2022/07/08 06:40:16;;;;;;;5.60;1.07;;;;;;;19.60;53.50;102567.31;4995644;28;98448;-48
2022/07/08 06:42:41;;;;;;;4.07;1.47;;;;;;;19.68;53.49;102573.16;4990751;28;97156;-48
2022/07/08 06:45:07;;;;;;;3.60;0.90;;;;;;;19.76;53.31;102569.34;4996607;28;97266;-48
2022/07/08 06:47:32;;;;;;;2.20;1.07;;;;;;;19.79;53.39;102567.56;4998756;28;97262;-48
2022/07/08 06:49:57;;;;;;;5.73;1.20;;;;;;;19.81;53.17;102581.78;5001524;28;108635;-48
2022/07/08 06:52:23;;;;;;;1.53;0.90;;;;;;;19.81;53.01;102587.38;4995520;28;97456;-48
2022/07/08 06:54:48;;;;;;;6.30;1.13;;;;;;;19.77;52.91;102593.19;4994329;28;104818;-48
2022/07/08 06:57:15;;;;;;;2.13;1.00;;;;;;;19.76;52.92;102591.69;4997091;28;97318;-48
2022/07/08 06:59:41;;;;;;;3.90;1.47;;;;;;;19.75;53.14;102606.16;4990107;28;96875;-47
2022/07/08 07:02:07;;;;;;;4.03;1.10;;;;;;;19.76;53.20;102602.09;4995175;28;98362;-48
2022/07/08 07:04:33;;;;;;;3.73;1.20;;;;;;;19.76;53.23;102608.44;4997103;28;96820;-49
2022/07/08 07:06:58;;;;;;;3.03;0.70;;;;;;;19.77;53.29;102600.81;4999746;28;97173;-47
2022/07/08 07:09:23;;;;;;;2.17;0.93;;;;;;;19.84;53.28;102598.28;5001258;28;96955;-48
2022/07/08 07:11:49;;;;;;;2.37;0.83;;;;;;;19.92;53.25;102602.06;4994735;28;96681;-48
2022/07/08 07:14:14;;;;;;;4.17;1.00;;;;;;;20.04;53.03;102597.22;4999437;28;97170;-48
2022/07/08 07:16:40;;;;;;;3.23;1.10;;;;;;;20.10;52.89;102601.53;4994507;28;96830;-48
2022/07/08 07:19:05;;;;;;;2.70;0.83;;;;;;;20.09;52.57;102602.78;4998376;28;97082;-48
2022/07/08 07:21:30;;;;;;;3.90;1.00;;;;;;;20.12;52.69;102606.59;4996180;28;96814;-48
2022/07/08 07:23:56;;;;;;;3.27;1.10;;;;;;;20.12;52.49;102615.75;4994420;28;97126;-49
2022/07/08 07:26:21;;;;;;;2.47;0.80;;;;;;;20.07;52.49;102615.78;4998107;28;97272;-48
2022/07/08 07:28:47;;;;;;;4.00;1.10;;;;;;;20.05;52.81;102613.47;4991029;28;97097;-49
2022/07/08 07:31:12;;;;;;;3.50;0.87;;;;;;;20.05;52.67;102618.31;4994854;28;97287;-48
2022/07/08 07:33:37;;;;;;;1.40;0.97;;;;;;;20.10;52.39;102614.72;5001908;28;97472;-48
2022/07/08 07:36:03;;;;;;;2.90;0.83;;;;;;;20.19;52.26;102622.84;4996201;28;97035;-49
2022/07/08 07:38:29;;;;;;;2.90;0.80;;;;;;;20.28;52.23;102624.63;5000514;28;96803;-49
2022/07/08 07:40:54;;;;;;;2.23;0.90;;;;;;;20.33;52.31;102629.44;4998229;28;97204;-48
2022/07/08 07:43:19;;;;;;;4.63;1.20;;;;;;;20.37;52.01;102622.31;4999522;28;97404;-47
2022/07/08 07:45:45;;;;;;;1.40;0.70;;;;;;;20.38;52.12;102625.88;5003685;28;97489;-48
2022/07/08 07:48:10;;;;;;;4.33;1.10;;;;;;;20.40;52.05;102626.13;5006708;28;97102;-48
2022/07/08 07:50:35;;;;;;;1.20;0.60;;;;;;;20.41;52.00;102631.19;5003609;28;96987;-52
2022/07/08 07:53:01;;;;;;;4.00;0.90;;;;;;;20.48;51.86;102625.09;5005668;28;97351;-48
2022/07/08 07:55:26;;;;;;;2.20;0.90;;;;;;;20.56;51.44;102616.91;4998064;28;97385;-48
2022/07/08 07:57:52;;;;;;;1.23;0.87;;;;;;;20.62;51.48;102629.59;4993032;28;96913;-48
2022/07/08 08:00:18;;;;;;;3.73;1.00;;;;;;;20.66;51.36;102632.13;4991779;28;97791;-49
2022/07/08 08:02:44;;;;;;;1.60;0.87;;;;;;;20.76;51.22;102630.56;5001726;28;96782;-48
2022/07/08 08:05:10;;;;;;;1.97;1.03;;;;;;;20.80;50.98;102625.44;5003759;28;97143;-47
2022/07/08 08:07:40;;;;;;;1.83;1.00;;;;;;;20.89;51.00;102623.09;4998458;28;96820;-48
2022/07/08 08:10:07;;;;;;;2.43;0.87;;;;;;;21.06;50.88;102620.22;4997407;28;96930;-48
2022/07/08 08:12:32;;;;;;;6.77;1.63;;;;;;;21.12;50.70;102623.75;5001276;28;97242;-48
2022/07/08 08:14:57;;;;;;;3.53;0.80;;;;;;;21.15;50.64;102627.56;5002301;28;96860;-50
2022/07/08 08:17:23;;;;;;;6.73;1.10;;;;;;;21.16;50.53;102627.06;4994047;28;96734;-48
2022/07/08 08:19:48;;;;;;;3.97;0.83;;;;;;;21.14;50.80;102621.22;4994888;28;97503;-48
2022/07/08 08:22:14;;;;;;;6.83;1.27;;;;;;;21.17;50.68;102627.78;4992654;28;96699;-48
2022/07/08 08:24:39;;;;;;;2.10;1.03;;;;;;;21.16;50.59;102626.28;5002474;28;97326;-48
2022/07/08 08:27:05;;;;;;;3.70;0.90;;;;;;;21.13;50.63;102621.72;4998309;28;97187;-48
2022/07/08 08:29:30;;;;;;;2.33;1.40;;;;;;;21.16;50.70;102631.88;4994026;28;97281;-48
2022/07/08 08:31:55;;;;;;;5.10;1.40;;;;;;;21.19;50.20;102636.44;4997963;28;97698;-49
2022/07/08 08:34:21;;;;;;;1.93;1.13;;;;;;;21.20;50.29;102633.13;5001273;28;97502;-48
2022/07/08 08:36:46;;;;;;;1.93;1.03;;;;;;;21.25;50.03;102634.38;4998777;28;96955;-50
2022/07/08 08:39:11;;;;;;;3.10;1.37;;;;;;;21.28;50.12;102633.31;4994120;28;97139;-48
2022/07/08 08:41:39;;;;;;;1.93;1.00;;;;;;;21.34;49.95;102640.41;4995553;28;97075;-48
2022/07/08 08:44:05;;;;;;;2.90;1.30;;;;;;;21.35;50.33;102639.13;4994842;28;97361;-48
2022/07/08 08:46:31;;;;;;;4.17;1.23;;;;;;;21.39;50.10;102634.00;4994756;28;97005;-48
2022/07/08 08:48:57;;;;;;;2.60;1.17;;;;;;;21.44;49.95;102632.44;4998622;28;96794;-50
2022/07/08 08:51:23;;;;;;;1.60;1.03;;;;;;;21.49;50.11;102634.47;4999110;28;97605;-49
2022/07/08 08:53:52;;;;;;;1.77;1.13;;;;;;;21.61;49.80;102638.66;4997761;28;97382;-48
2022/07/08 08:56:17;;;;;;;4.23;1.10;;;;;;;21.68;49.74;102635.31;4999942;28;97242;-48
2022/07/08 08:58:46;;;;;;;1.83;0.90;;;;;;;21.71;49.71;102628.63;4993710;28;97346;-49
2022/07/08 09:01:13;;;;;;;7.00;1.63;;;;;;;21.72;49.41;102632.97;4991862;28;97982;-49
2022/07/08 09:03:39;;;;;;;1.63;1.07;;;;;;;21.74;49.57;102622.00;4990511;28;97036;-48
2022/07/08 09:06:05;;;;;;;5.30;1.50;;;;;;;21.71;49.75;102639.84;4995383;28;97092;-48
2022/07/08 09:08:32;;;;;;;2.63;0.97;;;;;;;21.65;49.91;102636.34;4993099;28;97519;-47
2022/07/08 09:10:57;;;;;;;4.10;0.60;;;;;;;21.56;49.80;102637.44;4990815;28;97040;-48
2022/07/08 09:13:25;;;;;;;1.87;0.73;;;;;;;21.50;49.89;102635.97;4996268;28;96982;-48
2022/07/08 09:15:54;;;;;;;1.90;0.80;;;;;;;21.46;49.77;102636.25;4997610;28;97460;-52
2022/07/08 09:18:22;;;;;;;2.60;0.77;;;;;;;21.48;49.73;102642.09;4997703;28;97297;-48
2022/07/08 09:20:55;;;;;;;4.50;1.20;;;;;;;21.45;49.40;102645.94;5003481;28;99988;-49
2022/07/08 09:23:32;;;;;;;2.83;1.00;;;;;;;21.53;49.65;102643.34;5000001;28;97642;-48
2022/07/08 09:26:00;;;;;;;3.07;1.00;;;;;;;21.57;50.05;102641.78;4999948;28;97355;-48
2022/07/08 09:28:43;;;;;;;3.90;1.30;;;;;;;21.66;49.51;102637.88;4992866;28;100766;-48
2022/07/08 09:31:13;;;;;;;2.20;0.80;;;;;;;21.71;49.37;102645.44;4995712;28;101504;-49
2022/07/08 09:33:39;;;;;;;3.37;0.90;;;;;;;21.69;49.73;102650.09;4986363;28;96995;-48
2022/07/08 09:36:07;;;;;;;1.90;0.80;;;;;;;21.69;49.88;102636.81;4998745;28;97295;-48
2022/07/08 09:38:35;;;;;;;4.37;1.00;;;;;;;21.70;49.63;102643.94;4995039;28;103453;-48
2022/07/08 09:41:02;;;;;;;2.00;0.80;;;;;;;21.72;49.59;102647.00;4998128;28;97121;-48
2022/07/08 09:43:29;;;;;;;6.53;1.43;;;;;;;21.74;49.51;102643.66;4999845;28;97849;-48
2022/07/08 09:46:02;;;;;;;1.43;0.70;;;;;;;21.73;49.65;102644.94;4997243;28;97191;-48
2022/07/08 09:48:29;;;;;;;6.20;1.50;;;;;;;21.75;49.73;102653.59;4996237;28;97252;-48
2022/07/08 09:50:54;;;;;;;3.87;1.10;;;;;;;21.72;49.50;102638.59;4993315;28;97304;-49
2022/07/08 09:53:22;;;;;;;1.23;1.00;;;;;;;21.68;49.37;102652.13;4994458;28;97042;-48
2022/07/08 09:55:51;;;;;;;7.27;1.33;;;;;;;21.71;49.70;102651.06;4995895;28;96859;-48
2022/07/08 09:58:20;;;;;;;1.30;0.87;;;;;;;21.77;49.83;102642.63;4998928;28;97393;-48
2022/07/08 10:00:47;;;;;;;2.03;1.07;;;;;;;21.77;49.67;102646.19;5001290;28;97233;-48
2022/07/08 10:03:12;;;;;;;1.93;0.83;;;;;;;21.74;49.77;102644.41;4994126;28;97222;-47
2022/07/08 10:05:39;;;;;;;4.57;1.60;;;;;;;21.78;49.77;102642.09;5000169;28;97166;-48
2022/07/08 10:08:05;;;;;;;4.83;1.10;;;;;;;21.84;49.72;102651.22;4996019;28;97195;-48
2022/07/08 10:10:33;;;;;;;3.60;0.90;;;;;;;21.86;49.59;102645.13;4999445;28;100268;-48
2022/07/08 10:12:59;;;;;;;3.00;1.00;;;;;;;21.89;49.61;102644.81;4998627;28;97066;-48
2022/07/08 10:15:26;;;;;;;3.03;1.20;;;;;;;21.91;49.57;102650.66;4993022;28;97231;-49
2022/07/08 10:17:52;;;;;;;5.77;0.90;;;;;;;21.86;49.58;102650.72;4995139;28;97468;-47
2022/07/08 10:20:21;;;;;;;3.47;1.00;;;;;;;21.80;49.79;102647.94;4996922;28;98601;-50
2022/07/08 10:22:51;;;;;;;2.27;0.90;;;;;;;21.76;49.74;102657.91;4994522;28;97432;-48
2022/07/08 10:25:19;;;;;;;1.90;1.10;;;;;;;21.70;49.98;102655.16;4995570;28;96810;-48
2022/07/08 10:27:45;;;;;;;3.80;1.17;;;;;;;21.72;49.99;102663.81;4992155;28;97010;-48
2022/07/08 10:30:20;;;;;;;2.30;1.23;;;;;;;21.71;50.17;102659.47;4997772;28;97095;-49
2022/07/08 10:32:52;;;;;;;2.63;1.17;;;;;;;21.68;50.27;102654.91;4995219;28;96849;-47
2022/07/08 10:35:20;;;;;;;3.10;1.20;;;;;;;21.67;50.20;102656.97;4998934;28;96996;-49
2022/07/08 10:37:58;;;;;;;1.63;0.80;;;;;;;21.67;50.24;102655.44;4996276;28;96580;-48
2022/07/08 10:40:42;;;;;;;2.90;1.10;;;;;;;21.67;49.82;102661.78;4994196;28;97146;-48
2022/07/08 10:43:19;;;;;;;1.93;0.90;;;;;;;21.71;50.09;102665.06;4997307;28;97075;-49
2022/07/08 10:45:59;;;;;;;2.70;1.07;;;;;;;21.81;50.06;102654.28;5000700;28;97177;-48
2022/07/08 10:48:27;;;;;;;2.83;0.83;;;;;;;21.93;50.10;102655.75;4996325;28;98818;-48
2022/07/08 10:50:52;;;;;;;1.00;0.80;;;;;;;22.02;49.94;102658.97;4999879;28;97179;-48
2022/07/08 10:53:18;;;;;;;2.27;0.90;;;;;;;22.14;50.04;102651.97;5001011;28;97048;-49
2022/07/08 10:55:43;;;;;;;1.57;0.80;;;;;;;22.24;49.91;102655.94;5001828;28;97300;-49
2022/07/08 10:58:08;;;;;;;2.40;1.00;;;;;;;22.19;50.15;102650.41;4996721;28;97072;-48
2022/07/08 11:00:36;;;;;;;3.37;1.00;;;;;;;22.17;50.29;102653.72;4991049;28;97009;-48
2022/07/08 11:03:03;;;;;;;2.77;1.13;;;;;;;22.23;50.00;102653.66;4993638;28;96733;-47
2022/07/08 11:05:40;;;;;;;1.37;0.80;;;;;;;22.20;50.42;102647.06;4997362;28;96837;-48
2022/07/08 11:08:21;;;;;;;2.20;0.80;;;;;;;22.15;50.55;102663.94;4992872;28;97445;-49
2022/07/08 11:10:48;;;;;;;1.70;0.80;;;;;;;22.16;50.46;102657.81;4993112;28;97257;-50
2022/07/08 11:13:14;;;;;;;1.87;0.70;;;;;;;22.18;50.51;102660.84;4991962;28;97235;-47
2022/07/08 11:15:39;;;;;;;0.80;0.80;;;;;;;22.15;50.54;102656.28;4993355;28;97394;-48
2022/07/08 11:18:05;;;;;;;2.10;0.90;;;;;;;22.18;50.53;102657.28;4997255;28;97059;-49
2022/07/08 11:20:31;;;;;;;5.00;1.00;;;;;;;22.19;50.55;102651.13;4994583;28;97667;-48
2022/07/08 11:22:57;;;;;;;1.30;0.87;;;;;;;22.27;50.62;102657.69;4998558;28;97325;-48